sensor_id;sensor_type;location;lat;lon;timestamp;pressure;altitude;pressure_sealevel;temperature;humidity
54980;BME280;44101;50.462;30.432;2022-08-01T00:01:37;97282.34;;;19.78;51.63
54980;BME280;44101;50.462;30.432;2022-08-01T00:04:03;97285.66;;;19.74;51.13
54980;BME280;44101;50.462;30.432;2022-08-01T00:06:30;97300.41;;;19.73;51.05
54980;BME280;44101;50.462;30.432;2022-08-01T00:08:56;97305.38;;;19.71;51.59
54980;BME280;44101;50.462;30.432;2022-08-01T00:11:22;97305.13;;;19.68;52.07
54980;BME280;44101;50.462;30.432;2022-08-01T00:13:48;97315.22;;;19.67;52.13
54980;BME280;44101;50.462;30.432;2022-08-01T00:16:14;97327.28;;;19.66;51.85
54980;BME280;44101;50.462;30.432;2022-08-01T00:29:29;97477.81;;;19.90;52.04
54980;BME280;44101;50.462;30.432;2022-08-01T00:31:55;97431.41;;;19.75;53.04
54980;BME280;44101;50.462;30.432;2022-08-01T00:34:21;97396.50;;;19.61;52.45
54980;BME280;44101;50.462;30.432;2022-08-01T00:36:47;97369.19;;;19.51;53.10
54980;BME280;44101;50.462;30.432;2022-08-01T00:39:12;97344.38;;;19.42;52.45
54980;BME280;44101;50.462;30.432;2022-08-01T00:41:38;97329.38;;;19.34;52.81
54980;BME280;44101;50.462;30.432;2022-08-01T00:57:10;97492.47;;;19.55;53.57
54980;BME280;44101;50.462;30.432;2022-08-01T00:59:36;97443.88;;;19.41;53.79
54980;BME280;44101;50.462;30.432;2022-08-01T01:02:02;97411.38;;;19.29;54.31
54980;BME280;44101;50.462;30.432;2022-08-01T01:04:29;97394.72;;;19.20;54.07
54980;BME280;44101;50.462;30.432;2022-08-01T01:07:06;97374.56;;;19.11;54.30
54980;BME280;44101;50.462;30.432;2022-08-01T01:12:24;97336.06;;;18.97;54.37
54980;BME280;44101;50.462;30.432;2022-08-01T01:15:06;97341.81;;;18.90;54.97
54980;BME280;44101;50.462;30.432;2022-08-01T01:17:57;97333.34;;;18.87;54.43
54980;BME280;44101;50.462;30.432;2022-08-01T01:20:31;97329.56;;;18.82;55.35
54980;BME280;44101;50.462;30.432;2022-08-01T01:25:46;97341.31;;;18.78;55.10
54980;BME280;44101;50.462;30.432;2022-08-01T01:28:27;97341.03;;;18.74;55.40
54980;BME280;44101;50.462;30.432;2022-08-01T01:30:56;97343.50;;;18.71;55.52
54980;BME280;44101;50.462;30.432;2022-08-01T01:33:25;97334.22;;;18.66;55.69
54980;BME280;44101;50.462;30.432;2022-08-01T01:35:58;97337.53;;;18.63;56.04
54980;BME280;44101;50.462;30.432;2022-08-01T01:38:28;97340.78;;;18.60;55.67
54980;BME280;44101;50.462;30.432;2022-08-01T01:40:55;97332.34;;;18.57;55.73
54980;BME280;44101;50.462;30.432;2022-08-01T01:43:23;97349.00;;;18.55;56.35
54980;BME280;44101;50.462;30.432;2022-08-01T01:45:50;97363.72;;;18.54;56.28
54980;BME280;44101;50.462;30.432;2022-08-01T01:48:18;97361.31;;;18.52;56.14
54980;BME280;44101;50.462;30.432;2022-08-01T01:50:46;97377.13;;;18.50;56.23
54980;BME280;44101;50.462;30.432;2022-08-01T01:53:15;97382.84;;;18.49;56.17
54980;BME280;44101;50.462;30.432;2022-08-01T01:55:43;97392.97;;;18.48;56.94
54980;BME280;44101;50.462;30.432;2022-08-01T01:58:12;97403.88;;;18.48;56.54
54980;BME280;44101;50.462;30.432;2022-08-01T02:00:39;97401.97;;;18.44;56.35
54980;BME280;44101;50.462;30.432;2022-08-01T02:03:10;97393.50;;;18.40;57.06
54980;BME280;44101;50.462;30.432;2022-08-01T02:05:37;97394.31;;;18.35;56.61
54980;BME280;44101;50.462;30.432;2022-08-01T02:08:04;97392.69;;;18.34;57.58
54980;BME280;44101;50.462;30.432;2022-08-01T02:10:32;97408.22;;;18.34;56.76
54980;BME280;44101;50.462;30.432;2022-08-01T02:13:02;97419.97;;;18.34;57.36
54980;BME280;44101;50.462;30.432;2022-08-01T02:15:31;97439.63;;;18.36;57.77
54980;BME280;44101;50.462;30.432;2022-08-01T02:17:59;97458.72;;;18.36;57.19
54980;BME280;44101;50.462;30.432;2022-08-01T02:20:29;97478.66;;;18.37;57.70
54980;BME280;44101;50.462;30.432;2022-08-01T02:23:06;97486.56;;;18.38;58.21
54980;BME280;44101;50.462;30.432;2022-08-01T02:28:17;97532.16;;;18.43;58.22
54980;BME280;44101;50.462;30.432;2022-08-01T02:30:48;97544.97;;;18.42;58.30
54980;BME280;44101;50.462;30.432;2022-08-01T02:33:18;97553.16;;;18.42;58.66
54980;BME280;44101;50.462;30.432;2022-08-01T02:35:46;97558.63;;;18.42;57.95
54980;BME280;44101;50.462;30.432;2022-08-01T02:38:13;97569.00;;;18.40;58.05
54980;BME280;44101;50.462;30.432;2022-08-01T02:40:43;97568.44;;;18.38;59.00
54980;BME280;44101;50.462;30.432;2022-08-01T02:43:12;97561.88;;;18.34;58.61
54980;BME280;44101;50.462;30.432;2022-08-01T02:45:51;97569.53;;;18.32;58.82
54980;BME280;44101;50.462;30.432;2022-08-01T02:48:18;97566.22;;;18.30;58.72
54980;BME280;44101;50.462;30.432;2022-08-01T02:50:48;97577.97;;;18.31;58.78
54980;BME280;44101;50.462;30.432;2022-08-01T02:53:18;97596.81;;;18.32;58.88
54980;BME280;44101;50.462;30.432;2022-08-01T02:55:45;97614.81;;;18.33;58.58
54980;BME280;44101;50.462;30.432;2022-08-01T02:58:15;97630.66;;;18.36;58.84
54980;BME280;44101;50.462;30.432;2022-08-01T03:00:45;97636.94;;;18.37;58.86
54980;BME280;44101;50.462;30.432;2022-08-01T03:03:12;97651.41;;;18.37;59.65
54980;BME280;44101;50.462;30.432;2022-08-01T03:05:39;97651.41;;;18.37;59.03
54980;BME280;44101;50.462;30.432;2022-08-01T03:08:07;97677.63;;;18.38;59.09
54980;BME280;44101;50.462;30.432;2022-08-01T03:10:36;97690.97;;;18.40;59.51
54980;BME280;44101;50.462;30.432;2022-08-01T03:13:03;97700.84;;;18.41;59.60
54980;BME280;44101;50.462;30.432;2022-08-01T03:15:31;97725.69;;;18.45;59.47
54980;BME280;44101;50.462;30.432;2022-08-01T03:17:59;97743.44;;;18.47;60.05
54980;BME280;44101;50.462;30.432;2022-08-01T03:20:27;97774.31;;;18.53;59.46
54980;BME280;44101;50.462;30.432;2022-08-01T03:22:56;97807.09;;;18.58;59.38
54980;BME280;44101;50.462;30.432;2022-08-01T03:25:24;97830.06;;;18.62;60.24
54980;BME280;44101;50.462;30.432;2022-08-01T03:27:54;97848.38;;;18.67;59.85
54980;BME280;44101;50.462;30.432;2022-08-01T03:30:25;97909.06;;;18.79;60.31
54980;BME280;44101;50.462;30.432;2022-08-01T03:32:52;97963.47;;;18.91;59.44
54980;BME280;44101;50.462;30.432;2022-08-01T03:35:18;98003.47;;;19.03;59.63
54980;BME280;44101;50.462;30.432;2022-08-01T03:37:47;98037.41;;;19.07;60.22
54980;BME280;44101;50.462;30.432;2022-08-01T03:40:22;98063.66;;;19.13;60.21
54980;BME280;44101;50.462;30.432;2022-08-01T03:42:53;98069.13;;;19.13;59.70
54980;BME280;44101;50.462;30.432;2022-08-01T03:45:25;98071.63;;;19.15;60.00
54980;BME280;44101;50.462;30.432;2022-08-01T03:47:58;98074.34;;;19.15;59.61
54980;BME280;44101;50.462;30.432;2022-08-01T03:50:25;98067.75;;;19.11;60.38
54980;BME280;44101;50.462;30.432;2022-08-01T03:52:53;98065.00;;;19.11;60.34
54980;BME280;44101;50.462;30.432;2022-08-01T03:55:21;98068.84;;;19.09;60.04
54980;BME280;44101;50.462;30.432;2022-08-01T03:57:48;98088.25;;;19.13;59.97
54980;BME280;44101;50.462;30.432;2022-08-01T04:00:15;98105.78;;;19.17;59.85
54980;BME280;44101;50.462;30.432;2022-08-01T04:02:48;98114.00;;;19.17;60.07
54980;BME280;44101;50.462;30.432;2022-08-01T04:05:17;98126.31;;;19.20;60.10
54980;BME280;44101;50.462;30.432;2022-08-01T04:07:50;98155.34;;;19.26;59.66
54980;BME280;44101;50.462;30.432;2022-08-01T04:10:24;98174.50;;;19.31;59.98
54980;BME280;44101;50.462;30.432;2022-08-01T04:12:51;98209.81;;;19.38;60.16
54980;BME280;44101;50.462;30.432;2022-08-01T04:15:17;98247.63;;;19.46;59.75
54980;BME280;44101;50.462;30.432;2022-08-01T04:17:45;98276.38;;;19.54;59.44
54980;BME280;44101;50.462;30.432;2022-08-01T04:20:11;98313.97;;;19.64;60.11
54980;BME280;44101;50.462;30.432;2022-08-01T04:22:37;98374.81;;;19.76;59.91
54980;BME280;44101;50.462;30.432;2022-08-01T04:25:09;98404.16;;;19.86;59.98
54980;BME280;44101;50.462;30.432;2022-08-01T04:27:36;98428.56;;;19.93;58.99
54980;BME280;44101;50.462;30.432;2022-08-01T04:30:04;98464.28;;;20.03;59.17
54980;BME280;44101;50.462;30.432;2022-08-01T04:32:33;98546.03;;;20.22;58.80
54980;BME280;44101;50.462;30.432;2022-08-01T04:35:03;98586.69;;;20.36;59.15
54980;BME280;44101;50.462;30.432;2022-08-01T04:37:30;98629.53;;;20.47;58.59
54980;BME280;44101;50.462;30.432;2022-08-01T04:39:57;98689.13;;;20.62;58.63
54980;BME280;44101;50.462;30.432;2022-08-01T04:42:24;98756.47;;;20.80;58.16
54980;BME280;44101;50.462;30.432;2022-08-01T04:44:50;98793.91;;;20.92;58.29
54980;BME280;44101;50.462;30.432;2022-08-01T04:47:16;98854.38;;;21.07;58.52
54980;BME280;44101;50.462;30.432;2022-08-01T04:49:43;98878.59;;;21.16;57.71
54980;BME280;44101;50.462;30.432;2022-08-01T04:52:11;98882.22;;;21.21;57.40
54980;BME280;44101;50.462;30.432;2022-08-01T04:54:37;98920.75;;;21.32;57.68
54980;BME280;44101;50.462;30.432;2022-08-01T04:57:03;98979.34;;;21.48;57.62
54980;BME280;44101;50.462;30.432;2022-08-01T04:59:30;99027.25;;;21.62;56.74
54980;BME280;44101;50.462;30.432;2022-08-01T05:04:33;99079.94;;;21.82;56.79
54980;BME280;44101;50.462;30.432;2022-08-01T05:07:00;99117.41;;;21.93;56.40
54980;BME280;44101;50.462;30.432;2022-08-01T05:09:27;99160.94;;;22.07;56.50
54980;BME280;44101;50.462;30.432;2022-08-01T05:11:53;99194.84;;;22.17;56.32
54980;BME280;44101;50.462;30.432;2022-08-01T05:14:19;99195.19;;;22.21;56.06
54980;BME280;44101;50.462;30.432;2022-08-01T05:16:45;99206.81;;;22.28;55.07
54980;BME280;44101;50.462;30.432;2022-08-01T05:19:11;99195.00;;;22.28;55.63
54980;BME280;44101;50.462;30.432;2022-08-01T05:21:37;99173.53;;;22.25;55.43
54980;BME280;44101;50.462;30.432;2022-08-01T05:24:04;99127.28;;;22.16;55.26
54980;BME280;44101;50.462;30.432;2022-08-01T05:26:30;99130.63;;;22.19;55.08
54980;BME280;44101;50.462;30.432;2022-08-01T05:28:56;99141.41;;;22.25;54.98
54980;BME280;44101;50.462;30.432;2022-08-01T05:31:21;99153.00;;;22.33;54.74
54980;BME280;44101;50.462;30.432;2022-08-01T05:33:47;99186.94;;;22.43;54.24
54980;BME280;44101;50.462;30.432;2022-08-01T05:36:13;99208.69;;;22.50;53.64
54980;BME280;44101;50.462;30.432;2022-08-01T05:38:38;99193.91;;;22.51;54.19
54980;BME280;44101;50.462;30.432;2022-08-01T05:41:04;99201.41;;;22.56;53.45
54980;BME280;44101;50.462;30.432;2022-08-01T05:43:30;99197.56;;;22.57;54.02
54980;BME280;44101;50.462;30.432;2022-08-01T05:45:56;99199.81;;;22.60;52.99
54980;BME280;44101;50.462;30.432;2022-08-01T05:48:22;99210.00;;;22.65;53.03
54980;BME280;44101;50.462;30.432;2022-08-01T05:50:47;99216.38;;;22.70;53.15
54980;BME280;44101;50.462;30.432;2022-08-01T05:53:13;99210.63;;;22.72;52.86
54980;BME280;44101;50.462;30.432;2022-08-01T05:55:39;99231.34;;;22.80;52.89
54980;BME280;44101;50.462;30.432;2022-08-01T05:58:04;99257.25;;;22.89;52.89
54980;BME280;44101;50.462;30.432;2022-08-01T06:00:30;99267.22;;;22.95;52.43
54980;BME280;44101;50.462;30.432;2022-08-01T06:02:56;99290.69;;;23.03;52.49
54980;BME280;44101;50.462;30.432;2022-08-01T06:05:22;99291.00;;;23.07;52.03
54980;BME280;44101;50.462;30.432;2022-08-01T06:07:48;99290.50;;;23.10;52.47
54980;BME280;44101;50.462;30.432;2022-08-01T06:10:14;99299.59;;;23.16;52.28
54980;BME280;44101;50.462;30.432;2022-08-01T06:12:40;99325.81;;;23.23;51.52
54980;BME280;44101;50.462;30.432;2022-08-01T06:15:07;99324.22;;;23.28;51.64
54980;BME280;44101;50.462;30.432;2022-08-01T06:17:33;99328.38;;;23.30;51.26
54980;BME280;44101;50.462;30.432;2022-08-01T06:19:58;99302.22;;;23.28;51.41
54980;BME280;44101;50.462;30.432;2022-08-01T06:22:25;99282.13;;;23.27;50.95
54980;BME280;44101;50.462;30.432;2022-08-01T06:24:51;99249.91;;;23.22;50.94
54980;BME280;44101;50.462;30.432;2022-08-01T06:27:16;99276.94;;;23.31;51.20
54980;BME280;44101;50.462;30.432;2022-08-01T06:29:43;99321.63;;;23.43;50.99
54980;BME280;44101;50.462;30.432;2022-08-01T06:32:09;99364.16;;;23.58;50.50
54980;BME280;44101;50.462;30.432;2022-08-01T06:34:35;99397.59;;;23.72;50.44
54980;BME280;44101;50.462;30.432;2022-08-01T06:37:01;99445.34;;;23.83;50.70
54980;BME280;44101;50.462;30.432;2022-08-01T06:39:26;99466.63;;;23.92;50.05
54980;BME280;44101;50.462;30.432;2022-08-01T06:41:52;99494.00;;;24.04;50.73
54980;BME280;44101;50.462;30.432;2022-08-01T06:44:18;99547.38;;;24.21;49.99
54980;BME280;44101;50.462;30.432;2022-08-01T06:46:44;99548.25;;;24.26;50.13
54980;BME280;44101;50.462;30.432;2022-08-01T06:49:09;99528.09;;;24.26;50.15
54980;BME280;44101;50.462;30.432;2022-08-01T06:51:35;99546.34;;;24.32;49.52
54980;BME280;44101;50.462;30.432;2022-08-01T06:54:02;99544.75;;;24.36;49.36
54980;BME280;44101;50.462;30.432;2022-08-01T06:56:28;99537.03;;;24.38;49.74
54980;BME280;44101;50.462;30.432;2022-08-01T06:58:53;99516.94;;;24.38;49.81
54980;BME280;44101;50.462;30.432;2022-08-01T07:01:27;99498.75;;;24.37;49.38
54980;BME280;44101;50.462;30.432;2022-08-01T07:03:53;99461.22;;;24.30;48.93
54980;BME280;44101;50.462;30.432;2022-08-01T07:06:19;99457.09;;;24.33;49.45
54980;BME280;44101;50.462;30.432;2022-08-01T07:08:46;99464.56;;;24.38;48.92
54980;BME280;44101;50.462;30.432;2022-08-01T07:11:11;99490.53;;;24.47;49.43
54980;BME280;44101;50.462;30.432;2022-08-01T07:13:37;99515.44;;;24.57;49.34
54980;BME280;44101;50.462;30.432;2022-08-01T07:16:03;99561.59;;;24.72;49.19
54980;BME280;44101;50.462;30.432;2022-08-01T07:18:28;99582.91;;;24.82;48.32
54980;BME280;44101;50.462;30.432;2022-08-01T07:20:54;99576.31;;;24.83;48.71
54980;BME280;44101;50.462;30.432;2022-08-01T07:23:20;99573.59;;;24.89;48.81
54980;BME280;44101;50.462;30.432;2022-08-01T07:25:45;99612.28;;;24.99;48.71
54980;BME280;44101;50.462;30.432;2022-08-01T07:28:11;99671.47;;;25.19;48.60
54980;BME280;44101;50.462;30.432;2022-08-01T07:30:37;99750.56;;;25.41;48.66
54980;BME280;44101;50.462;30.432;2022-08-01T07:33:02;99807.66;;;25.62;48.45
54980;BME280;44101;50.462;30.432;2022-08-01T07:35:29;99825.66;;;25.70;47.87
54980;BME280;44101;50.462;30.432;2022-08-01T07:37:56;99896.56;;;25.92;48.17
54980;BME280;44101;50.462;30.432;2022-08-01T07:40:22;99916.78;;;26.03;48.20
54980;BME280;44101;50.462;30.432;2022-08-01T07:42:47;99934.31;;;26.14;47.33
54980;BME280;44101;50.462;30.432;2022-08-01T07:45:13;99898.06;;;26.10;47.33
54980;BME280;44101;50.462;30.432;2022-08-01T07:47:39;99912.50;;;26.17;47.68
54980;BME280;44101;50.462;30.432;2022-08-01T07:50:06;99938.03;;;26.30;47.54
54980;BME280;44101;50.462;30.432;2022-08-01T07:52:32;99856.63;;;26.15;47.50
54980;BME280;44101;50.462;30.432;2022-08-01T07:54:58;99810.72;;;26.09;47.18
54980;BME280;44101;50.462;30.432;2022-08-01T07:57:25;99753.72;;;25.98;47.40
54980;BME280;44101;50.462;30.432;2022-08-01T07:59:51;99768.72;;;26.07;46.38
54980;BME280;44101;50.462;30.432;2022-08-01T08:02:16;99782.00;;;26.15;46.54
54980;BME280;44101;50.462;30.432;2022-08-01T08:04:42;99837.97;;;26.33;46.95
54980;BME280;44101;50.462;30.432;2022-08-01T08:07:08;99878.44;;;26.50;46.92
54980;BME280;44101;50.462;30.432;2022-08-01T08:09:34;99924.44;;;26.66;46.58
54980;BME280;44101;50.462;30.432;2022-08-01T08:12:00;99888.44;;;26.61;46.66
54980;BME280;44101;50.462;30.432;2022-08-01T08:14:25;99877.94;;;26.63;45.76
54980;BME280;44101;50.462;30.432;2022-08-01T08:16:51;99880.47;;;26.70;45.85
54980;BME280;44101;50.462;30.432;2022-08-01T08:19:17;99934.78;;;26.86;45.74
54980;BME280;44101;50.462;30.432;2022-08-01T08:21:43;99932.88;;;26.92;45.81
54980;BME280;44101;50.462;30.432;2022-08-01T08:24:09;99945.94;;;27.02;45.67
54980;BME280;44101;50.462;30.432;2022-08-01T08:26:57;99963.69;;;27.11;45.95
54980;BME280;44101;50.462;30.432;2022-08-01T08:29:23;100000.00;;;27.25;45.41
54980;BME280;44101;50.462;30.432;2022-08-01T08:31:52;99952.34;;;27.18;45.06
54980;BME280;44101;50.462;30.432;2022-08-01T08:34:19;99908.88;;;27.13;44.95
54980;BME280;44101;50.462;30.432;2022-08-01T08:36:44;99864.31;;;27.10;45.39
54980;BME280;44101;50.462;30.432;2022-08-01T08:39:10;99859.91;;;27.14;45.09
54980;BME280;44101;50.462;30.432;2022-08-01T08:41:36;99888.44;;;27.25;44.57
54980;BME280;44101;50.462;30.432;2022-08-01T08:44:06;99903.69;;;27.33;45.13
54980;BME280;44101;50.462;30.432;2022-08-01T08:46:33;99945.22;;;27.48;44.70
54980;BME280;44101;50.462;30.432;2022-08-01T08:49:01;99969.13;;;27.60;44.80
54980;BME280;44101;50.462;30.432;2022-08-01T08:51:30;99979.69;;;27.68;44.81
54980;BME280;44101;50.462;30.432;2022-08-01T08:53:57;99943.34;;;27.64;44.90
54980;BME280;44101;50.462;30.432;2022-08-01T08:56:24;99975.25;;;27.77;44.82
54980;BME280;44101;50.462;30.432;2022-08-01T08:58:51;99978.56;;;27.85;44.83
54980;BME280;44101;50.462;30.432;2022-08-01T09:01:17;99917.63;;;27.74;44.58
54980;BME280;44101;50.462;30.432;2022-08-01T09:03:43;99822.84;;;27.57;44.72
54980;BME280;44101;50.462;30.432;2022-08-01T09:06:09;99779.66;;;27.50;44.71
54980;BME280;44101;50.462;30.432;2022-08-01T09:08:36;99803.75;;;27.60;44.09
54980;BME280;44101;50.462;30.432;2022-08-01T09:11:02;99841.13;;;27.73;44.01
54980;BME280;44101;50.462;30.432;2022-08-01T09:13:28;99861.38;;;27.84;43.86
54980;BME280;44101;50.462;30.432;2022-08-01T09:15:54;99898.75;;;27.97;44.42
54980;BME280;44101;50.462;30.432;2022-08-01T09:21:10;99959.78;;;28.23;43.71
54980;BME280;44101;50.462;30.432;2022-08-01T09:23:47;99929.53;;;28.22;43.63
54980;BME280;44101;50.462;30.432;2022-08-01T09:26:16;99938.41;;;28.29;43.71
54980;BME280;44101;50.462;30.432;2022-08-01T09:28:43;99912.66;;;28.28;43.20
54980;BME280;44101;50.462;30.432;2022-08-01T09:31:11;99872.97;;;28.23;43.75
54980;BME280;44101;50.462;30.432;2022-08-01T09:33:48;99876.28;;;28.30;43.27
54980;BME280;44101;50.462;30.432;2022-08-01T09:36:13;99879.91;;;28.36;43.42
54980;BME280;44101;50.462;30.432;2022-08-01T09:38:39;99887.09;;;28.42;43.62
54980;BME280;44101;50.462;30.432;2022-08-01T09:41:05;99950.00;;;28.62;43.23
54980;BME280;44101;50.462;30.432;2022-08-01T09:43:32;100013.75;;;28.83;43.24
54980;BME280;44101;50.462;30.432;2022-08-01T09:46:08;100040.41;;;28.94;43.39
54980;BME280;44101;50.462;30.432;2022-08-01T09:48:34;100034.00;;;28.99;43.55
54980;BME280;44101;50.462;30.432;2022-08-01T09:51:02;99985.19;;;28.93;43.23
54980;BME280;44101;50.462;30.432;2022-08-01T09:53:39;100006.50;;;29.03;42.77
54980;BME280;44101;50.462;30.432;2022-08-01T09:56:10;100006.50;;;29.08;42.97
54980;BME280;44101;50.462;30.432;2022-08-01T09:58:53;100026.44;;;29.20;42.65
54980;BME280;44101;50.462;30.432;2022-08-01T10:01:21;100099.97;;;29.44;43.05
54980;BME280;44101;50.462;30.432;2022-08-01T10:04:04;100202.69;;;29.75;42.30
54980;BME280;44101;50.462;30.432;2022-08-01T10:06:30;100309.66;;;30.09;42.40
54980;BME280;44101;50.462;30.432;2022-08-01T10:08:56;100335.47;;;30.19;42.30
54980;BME280;44101;50.462;30.432;2022-08-01T10:11:22;100280.16;;;30.13;41.89
54980;BME280;44101;50.462;30.432;2022-08-01T10:13:48;100274.28;;;30.19;42.08
54980;BME280;44101;50.462;30.432;2022-08-01T10:16:15;100244.81;;;30.18;42.31
54980;BME280;44101;50.462;30.432;2022-08-01T10:18:42;100222.56;;;30.18;41.96
54980;BME280;44101;50.462;30.432;2022-08-01T10:21:10;100204.47;;;30.21;42.09
54980;BME280;44101;50.462;30.432;2022-08-01T10:23:37;100160.00;;;30.16;42.02
54980;BME280;44101;50.462;30.432;2022-08-01T10:26:05;100160.50;;;30.23;41.90
54980;BME280;44101;50.462;30.432;2022-08-01T10:28:34;100119.66;;;30.18;41.96
54980;BME280;44101;50.462;30.432;2022-08-01T10:31:01;100049.38;;;30.07;42.18
54980;BME280;44101;50.462;30.432;2022-08-01T10:33:28;100011.28;;;30.03;41.52
54980;BME280;44101;50.462;30.432;2022-08-01T10:35:54;99925.25;;;29.87;41.83
54980;BME280;44101;50.462;30.432;2022-08-01T10:38:20;99951.84;;;29.99;41.79
54980;BME280;44101;50.462;30.432;2022-08-01T10:40:46;99985.69;;;30.11;41.53
54980;BME280;44101;50.462;30.432;2022-08-01T10:43:12;100003.41;;;30.20;41.51
54980;BME280;44101;50.462;30.432;2022-08-01T10:45:42;100045.00;;;30.36;41.60
54980;BME280;44101;50.462;30.432;2022-08-01T10:48:18;100092.69;;;30.54;41.35
54980;BME280;44101;50.462;30.432;2022-08-01T10:50:52;100098.75;;;30.61;41.48
54980;BME280;44101;50.462;30.432;2022-08-01T10:53:22;100100.66;;;30.66;41.16
54980;BME280;44101;50.462;30.432;2022-08-01T10:58:27;99988.91;;;30.53;41.48
54980;BME280;44101;50.462;30.432;2022-08-01T11:09:15;99994.56;;;30.78;40.91
54980;BME280;44101;50.462;30.432;2022-08-01T11:12:05;99970.03;;;30.80;40.75
54980;BME280;44101;50.462;30.432;2022-08-01T11:17:45;99888.84;;;30.72;40.65
54980;BME280;44101;50.462;30.432;2022-08-01T11:26:10;100008.28;;;31.18;40.50
54980;BME280;44101;50.462;30.432;2022-08-01T11:28:19;99956.84;;;31.10;40.93
54980;BME280;44101;50.462;30.432;2022-08-01T11:33:53;99942.81;;;31.20;40.13
54980;BME280;44101;50.462;30.432;2022-08-01T11:36:24;99854.19;;;31.03;40.33
54980;BME280;44101;50.462;30.432;2022-08-01T11:41:34;99652.94;;;30.64;40.26
54980;BME280;44101;50.462;30.432;2022-08-01T11:44:16;99577.44;;;30.52;40.33
54980;BME280;44101;50.462;30.432;2022-08-01T11:47:04;99573.22;;;30.54;40.46
54980;BME280;44101;50.462;30.432;2022-08-01T11:57:29;99294.66;;;30.00;40.28
54980;BME280;44101;50.462;30.432;2022-08-01T11:59:58;99235.97;;;29.87;40.32
54980;BME280;44101;50.462;30.432;2022-08-01T12:02:32;99177.31;;;29.75;40.42
54980;BME280;44101;50.462;30.432;2022-08-01T12:05:09;99189.13;;;29.80;40.49
54980;BME280;44101;50.462;30.432;2022-08-01T12:07:38;99238.34;;;29.94;40.48
54980;BME280;44101;50.462;30.432;2022-08-01T12:10:13;99305.31;;;30.12;40.25
54980;BME280;44101;50.462;30.432;2022-08-01T12:12:51;99351.47;;;30.27;40.08
54980;BME280;44101;50.462;30.432;2022-08-01T12:15:19;99329.22;;;30.27;40.35
54980;BME280;44101;50.462;30.432;2022-08-01T12:17:48;99440.53;;;30.55;40.40
54980;BME280;44101;50.462;30.432;2022-08-01T12:20:20;99660.75;;;31.14;40.45
54980;BME280;44101;50.462;30.432;2022-08-01T12:22:47;99886.03;;;31.74;39.79
54980;BME280;44101;50.462;30.432;2022-08-01T12:25:15;99926.28;;;31.87;39.91
54980;BME280;44101;50.462;30.432;2022-08-01T12:27:43;99791.22;;;31.60;39.93
54980;BME280;44101;50.462;30.432;2022-08-01T12:30:12;99670.94;;;31.38;39.92
54980;BME280;44101;50.462;30.432;2022-08-01T12:32:40;99814.91;;;31.76;39.81
54980;BME280;44101;50.462;30.432;2022-08-01T12:35:07;100015.34;;;32.30;39.69
54980;BME280;44101;50.462;30.432;2022-08-01T12:37:37;100120.88;;;32.61;39.50
54980;BME280;44101;50.462;30.432;2022-08-01T12:42:41;100323.78;;;33.24;38.93
54980;BME280;44101;50.462;30.432;2022-08-01T12:45:13;100453.97;;;33.63;38.96
54980;BME280;44101;50.462;30.432;2022-08-01T12:47:39;100566.41;;;33.99;38.73
54980;BME280;44101;50.462;30.432;2022-08-01T12:50:08;100388.53;;;33.64;38.56
54980;BME280;44101;50.462;30.432;2022-08-01T12:52:37;100000.78;;;32.81;38.60
54980;BME280;44101;50.462;30.432;2022-08-01T12:55:16;99635.56;;;31.95;38.73
54980;BME280;44101;50.462;30.432;2022-08-01T12:57:50;99293.38;;;31.18;38.72
54980;BME280;44101;50.462;30.432;2022-08-01T13:00:25;99142.44;;;30.84;38.91
54980;BME280;44101;50.462;30.432;2022-08-01T13:05:53;99743.78;;;32.35;38.71
54980;BME280;44101;50.462;30.432;2022-08-01T13:08:29;99986.78;;;33.00;38.79
54980;BME280;44101;50.462;30.432;2022-08-01T13:11:03;100120.66;;;33.38;38.89
54980;BME280;44101;50.462;30.432;2022-08-01T13:13:47;100054.31;;;33.30;38.35
54980;BME280;44101;50.462;30.432;2022-08-01T13:16:14;100080.88;;;33.41;38.13
54980;BME280;44101;50.462;30.432;2022-08-01T13:18:40;100118.59;;;33.58;38.17
54980;BME280;44101;50.462;30.432;2022-08-01T13:23:36;99815.06;;;32.97;37.85
54980;BME280;44101;50.462;30.432;2022-08-01T13:26:02;99662.19;;;32.66;37.72
54980;BME280;44101;50.462;30.432;2022-08-01T13:28:29;99761.78;;;32.94;37.77
54980;BME280;44101;50.462;30.432;2022-08-01T13:31:02;99786.69;;;33.04;37.76
54980;BME280;44101;50.462;30.432;2022-08-01T13:33:44;99698.00;;;32.87;37.68
54980;BME280;44101;50.462;30.432;2022-08-01T13:36:11;99661.19;;;32.85;37.86
54980;BME280;44101;50.462;30.432;2022-08-01T13:38:38;99798.00;;;33.22;37.77
54980;BME280;44101;50.462;30.432;2022-08-01T13:41:23;100013.56;;;33.80;37.78
54980;BME280;44101;50.462;30.432;2022-08-01T13:43:49;100165.34;;;34.23;37.25
54980;BME280;44101;50.462;30.432;2022-08-01T13:46:15;100249.53;;;34.49;37.55
54980;BME280;44101;50.462;30.432;2022-08-01T13:48:42;100047.03;;;34.08;37.15
54980;BME280;44101;50.462;30.432;2022-08-01T13:51:08;99509.59;;;32.84;37.06
54980;BME280;44101;50.462;30.432;2022-08-01T13:53:33;99086.31;;;31.86;37.27
54980;BME280;44101;50.462;30.432;2022-08-01T13:55:59;98792.34;;;31.13;37.37
54980;BME280;44101;50.462;30.432;2022-08-01T13:58:25;98541.84;;;30.51;37.44
54980;BME280;44101;50.462;30.432;2022-08-01T14:00:50;98342.66;;;30.02;37.62
54980;BME280;44101;50.462;30.432;2022-08-01T14:03:16;98290.38;;;29.87;37.69
54980;BME280;44101;50.462;30.432;2022-08-01T14:05:43;98263.44;;;29.78;38.09
54980;BME280;44101;50.462;30.432;2022-08-01T14:08:09;98788.09;;;31.07;37.77
54980;BME280;44101;50.462;30.432;2022-08-01T14:10:34;99424.13;;;32.66;37.70
54980;BME280;44101;50.462;30.432;2022-08-01T14:13:00;99996.19;;;34.06;37.20